Time;durP1;ratioP1;P1;durP2;ratioP2;P2;SDS_P1;SDS_P2;PMS_P1;PMS_P2;Temp;Humidity;BMP_temperature;BMP_pressure;BME280_temperature;BME280_humidity;BME280_pressure;Samples;Min_cycle;Max_cycle;Signal;HPM_P1;HPM_P2
2023/12/18 00:00:43;;;;;;;24.88;18.33;;;;;;;6.87;67.72;100681.16;5093392;28;20521;-49
2023/12/18 00:03:09;;;;;;;22.80;15.93;;;;;;;7.04;67.42;100679.75;5093399;28;20048;-49
2023/12/18 00:05:36;;;;;;;23.45;16.75;;;;;;;7.15;66.69;100673.63;5093308;28;20058;-49
2023/12/18 00:08:01;;;;;;;26.33;17.77;;;;;;;6.93;65.60;100674.59;5093331;28;20066;-49
2023/12/18 00:10:27;;;;;;;27.80;20.27;;;;;;;6.39;65.53;100669.38;5093186;28;20028;-49
2023/12/18 00:12:53;;;;;;;26.33;19.20;;;;;;;5.70;65.57;100664.41;5092939;28;20080;-49
2023/12/18 00:15:18;;;;;;;28.92;20.58;;;;;;;5.08;66.82;100673.50;5093131;28;20054;-49
2023/12/18 00:17:44;;;;;;;25.73;19.80;;;;;;;4.91;68.59;100671.31;5093091;28;20085;-49
2023/12/18 00:20:10;;;;;;;27.50;20.55;;;;;;;4.84;68.69;100683.16;5093012;28;20039;-48
2023/12/18 00:22:36;;;;;;;31.40;20.65;;;;;;;4.71;69.87;100680.59;5093003;28;20028;-49
2023/12/18 00:25:02;;;;;;;24.80;19.00;;;;;;;4.54;69.76;100671.44;5091556;28;20028;-48
2023/12/18 00:27:27;;;;;;;33.72;22.63;;;;;;;4.39;70.93;100674.22;5092874;28;20103;-48
2023/12/18 00:29:53;;;;;;;76.57;64.03;;;;;;;4.18;70.60;100673.16;5092833;28;20056;-48
2023/12/18 00:32:19;;;;;;;134.50;119.80;;;;;;;4.00;72.00;100672.72;5092642;28;20031;-48
2023/12/18 00:34:44;;;;;;;31.95;25.23;;;;;;;4.07;72.83;100681.75;5092781;28;20020;-48
2023/12/18 00:37:11;;;;;;;37.85;26.75;;;;;;;4.10;72.44;100685.88;5092661;28;20020;-48
2023/12/18 00:39:36;;;;;;;32.13;21.75;;;;;;;4.09;73.36;100673.84;5092689;28;20016;-48
2023/12/18 00:42:03;;;;;;;26.70;19.70;;;;;;;4.16;73.54;100668.06;5091281;28;20455;-48
2023/12/18 00:44:29;;;;;;;25.05;18.88;;;;;;;4.26;73.02;100670.03;5092563;28;20017;-48
2023/12/18 00:46:55;;;;;;;28.52;22.10;;;;;;;4.23;73.55;100662.47;5092502;28;20028;-48
2023/12/18 00:49:21;;;;;;;34.67;23.70;;;;;;;4.30;72.70;100664.50;5091780;28;20035;-48
2023/12/18 00:51:46;;;;;;;32.30;19.80;;;;;;;4.22;73.42;100661.63;5090994;28;20440;-48
2023/12/18 00:54:12;;;;;;;31.42;21.48;;;;;;;4.27;73.43;100667.31;5092345;28;20020;-48
2023/12/18 00:56:38;;;;;;;33.42;26.65;;;;;;;4.51;74.38;100669.91;5091050;28;20033;-48
2023/12/18 00:59:03;;;;;;;29.52;20.92;;;;;;;4.92;73.90;100660.81;5092277;28;20032;-49
2023/12/18 01:01:29;;;;;;;27.15;20.98;;;;;;;5.31;73.74;100663.13;5091001;28;20017;-49
2023/12/18 01:03:55;;;;;;;25.63;18.10;;;;;;;5.56;72.84;100657.69;5092254;28;20031;-49
2023/12/18 01:06:20;;;;;;;27.35;20.50;;;;;;;5.95;71.36;100652.09;5092133;28;20112;-49
2023/12/18 01:08:46;;;;;;;28.77;19.80;;;;;;;6.24;70.10;100647.16;5092205;28;20035;-48
2023/12/18 01:11:12;;;;;;;32.33;26.15;;;;;;;6.35;69.64;100648.91;5090573;28;20052;-49
2023/12/18 01:13:37;;;;;;;23.50;18.23;;;;;;;6.30;69.38;100657.09;5092069;28;20056;-49
2023/12/18 01:16:03;;;;;;;25.92;17.88;;;;;;;6.22;68.62;100654.28;5073860;28;20120;-48
2023/12/18 01:18:29;;;;;;;23.85;19.02;;;;;;;6.20;68.83;100648.38;5092097;28;20069;-48
2023/12/18 01:20:55;;;;;;;21.98;16.95;;;;;;;6.29;68.79;100657.22;5092043;28;20027;-49
2023/12/18 01:23:21;;;;;;;28.38;18.67;;;;;;;6.23;67.64;100660.31;5090670;28;20028;-48
2023/12/18 01:25:46;;;;;;;28.25;18.95;;;;;;;6.24;67.96;100657.59;5091872;28;20036;-49
2023/12/18 01:28:12;;;;;;;31.83;21.80;;;;;;;6.17;67.72;100652.03;5091991;28;20016;-48
2023/12/18 01:30:38;;;;;;;43.90;34.10;;;;;;;6.12;67.91;100655.97;5091918;28;20497;-49
2023/12/18 01:33:04;;;;;;;33.95;26.17;;;;;;;5.94;67.54;100653.03;5090345;28;20024;-49
2023/12/18 01:35:29;;;;;;;25.15;19.17;;;;;;;5.92;67.80;100649.72;5091773;28;20035;-48
2023/12/18 01:37:55;;;;;;;23.80;18.77;;;;;;;5.97;67.18;100650.19;5091830;28;20089;-49
2023/12/18 01:40:21;;;;;;;23.90;19.38;;;;;;;5.64;66.26;100645.84;5091786;28;20020;-49
2023/12/18 01:42:46;;;;;;;28.75;18.45;;;;;;;5.57;68.10;100642.88;5091808;28;20024;-48
2023/12/18 01:45:13;;;;;;;34.33;24.10;;;;;;;5.52;67.19;100645.03;5091759;28;20528;-49
2023/12/18 01:47:39;;;;;;;52.50;46.75;;;;;;;5.52;68.18;100650.22;5090465;28;20020;-48
2023/12/18 01:50:06;;;;;;;25.88;21.23;;;;;;;5.72;69.15;100652.09;5090563;28;20016;-48
2023/12/18 01:52:32;;;;;;;36.58;28.95;;;;;;;5.77;70.47;100649.13;5091632;28;20023;-49
2023/12/18 01:54:58;;;;;;;33.63;29.67;;;;;;;5.63;72.50;100655.41;5091699;28;20390;-48
2023/12/18 01:57:25;;;;;;;44.25;36.20;;;;;;;5.38;73.72;100657.31;5091621;28;20021;-48
2023/12/18 01:59:52;;;;;;;33.00;27.95;;;;;;;5.04;73.88;100656.47;5091618;28;20020;-49
2023/12/18 02:02:18;;;;;;;34.83;27.10;;;;;;;4.53;74.31;100660.22;5094684;28;20508;-48
2023/12/18 02:04:45;;;;;;;35.38;28.23;;;;;;;3.95;74.85;100661.84;5095887;28;20036;-48
2023/12/18 02:07:11;;;;;;;142.23;28.15;;;;;;;3.42;75.47;100658.59;5095597;28;20023;-48
2023/12/18 02:09:37;;;;;;;62.10;24.02;;;;;;;3.04;76.58;100664.63;5094218;28;20024;-49
2023/12/18 02:12:04;;;;;;;28.42;21.85;;;;;;;3.03;79.67;100661.19;5093819;28;20506;-48
2023/12/18 02:14:30;;;;;;;35.28;21.95;;;;;;;3.32;80.74;100659.25;5095498;28;20020;-48
2023/12/18 02:16:55;;;;;;;53.20;29.17;;;;;;;3.78;81.69;100658.66;5094081;28;20077;-48
2023/12/18 02:19:29;;;;;;;29.83;17.75;;;;;;;3.73;79.56;100665.09;5094143;28;20020;-48
2023/12/18 02:21:56;;;;;;;117.57;24.70;;;;;;;3.33;79.00;100660.06;5094045;28;20412;-48
2023/12/18 02:24:22;;;;;;;132.60;29.30;;;;;;;2.84;79.61;100660.75;5093921;28;20028;-48
2023/12/18 02:26:48;;;;;;;31.55;20.83;;;;;;;2.66;80.26;100665.41;5095140;28;20019;-48
2023/12/18 02:29:15;;;;;;;42.05;22.42;;;;;;;2.62;81.73;100659.59;5095204;28;20043;-48
2023/12/18 02:31:41;;;;;;;29.00;20.75;;;;;;;2.54;81.92;100659.28;5095370;28;20440;-48
2023/12/18 02:34:07;;;;;;;52.55;23.15;;;;;;;2.36;82.20;100654.34;5095038;28;20020;-49
2023/12/18 02:36:33;;;;;;;44.72;24.00;;;;;;;2.24;82.81;100657.72;5093764;28;20039;-48
2023/12/18 02:38:58;;;;;;;79.20;61.38;;;;;;;2.31;84.01;100658.16;5093696;28;20360;-48
2023/12/18 02:41:24;;;;;;;56.03;29.83;;;;;;;2.88;85.69;100657.03;5094937;28;20024;-49
2023/12/18 02:43:50;;;;;;;88.18;28.25;;;;;;;2.86;82.83;100653.72;5094943;28;20016;-48
2023/12/18 02:46:16;;;;;;;97.30;27.75;;;;;;;2.59;82.39;100657.19;5094801;28;20020;-49
2023/12/18 02:48:41;;;;;;;116.55;27.40;;;;;;;2.31;82.06;100653.78;5093536;28;20027;-48
2023/12/18 02:51:07;;;;;;;100.50;36.13;;;;;;;2.07;82.90;100650.19;5094706;28;20024;-49
2023/12/18 02:53:33;;;;;;;95.50;28.50;;;;;;;2.11;84.80;100652.50;5094654;28;20386;-48
2023/12/18 02:55:59;;;;;;;46.13;25.17;;;;;;;2.55;85.76;100648.78;5094718;28;20088;-49
2023/12/18 02:58:24;;;;;;;68.85;36.50;;;;;;;2.76;85.23;100646.56;5094623;28;20129;-49
2023/12/18 03:00:50;;;;;;;60.38;26.15;;;;;;;3.05;85.52;100643.78;5093294;28;20111;-49
2023/12/18 03:03:16;;;;;;;46.15;21.25;;;;;;;3.38;85.22;100645.84;5094630;28;20517;-49
2023/12/18 03:05:42;;;;;;;257.55;26.45;;;;;;;3.32;83.08;100648.00;5094432;28;20166;-49
2023/12/18 03:08:08;;;;;;;96.97;24.90;;;;;;;2.96;82.41;100647.81;5093143;28;20085;-48
2023/12/18 03:10:33;;;;;;;46.92;24.42;;;;;;;2.66;82.53;100649.88;5094416;28;20549;-48
2023/12/18 03:12:59;;;;;;;74.88;23.95;;;;;;;2.44;83.16;100659.03;5093093;28;20044;-48
2023/12/18 03:15:26;;;;;;;69.50;23.50;;;;;;;2.34;83.38;100658.78;5092987;28;20082;-48
2023/12/18 03:17:51;;;;;;;88.22;22.92;;;;;;;2.30;83.63;100659.09;5094376;28;20027;-49
2023/12/18 03:20:17;;;;;;;38.50;20.15;;;;;;;2.71;85.87;100658.97;5076047;28;20024;-48
2023/12/18 03:22:43;;;;;;;49.40;24.73;;;;;;;3.14;85.20;100656.13;5094277;28;20031;-48
2023/12/18 03:25:08;;;;;;;92.25;23.90;;;;;;;3.16;84.17;100648.25;5094138;28;20115;-48
2023/12/18 03:27:34;;;;;;;35.70;22.77;;;;;;;2.95;83.30;100647.91;5092796;28;20027;-48
2023/12/18 03:30:00;;;;;;;128.70;34.03;;;;;;;2.79;83.79;100650.69;5092705;28;20020;-48
2023/12/18 03:32:26;;;;;;;43.47;28.85;;;;;;;2.85;84.54;100655.47;5093855;28;20024;-48
2023/12/18 03:34:51;;;;;;;70.43;27.13;;;;;;;2.86;84.03;100653.72;5093920;28;20020;-48
2023/12/18 03:37:17;;;;;;;31.77;21.15;;;;;;;3.06;85.19;100647.19;5093887;28;20092;-48
2023/12/18 03:39:43;;;;;;;26.00;18.88;;;;;;;3.55;85.93;100646.44;5093847;28;20103;-49
2023/12/18 03:42:08;;;;;;;30.63;21.70;;;;;;;3.99;84.83;100637.28;5093763;28;20137;-48
2023/12/18 03:44:34;;;;;;;39.55;23.95;;;;;;;4.27;83.12;100637.91;5094044;28;20065;-48
2023/12/18 03:47:00;;;;;;;50.30;20.00;;;;;;;4.33;82.23;100635.69;5093724;28;20032;-48
2023/12/18 03:49:25;;;;;;;46.78;24.35;;;;;;;4.13;80.53;100631.13;5093640;28;20528;-48
2023/12/18 03:51:52;;;;;;;43.35;27.45;;;;;;;3.95;81.04;100633.25;5093553;28;20020;-48
2023/12/18 03:54:18;;;;;;;29.52;18.90;;;;;;;3.96;80.81;100640.09;5093493;28;20488;-48
2023/12/18 03:56:44;;;;;;;25.95;18.42;;;;;;;3.88;80.49;100648.44;5093729;28;20513;-49
2023/12/18 03:59:09;;;;;;;31.45;24.27;;;;;;;3.85;80.27;100643.47;5093453;28;20022;-48
2023/12/18 04:01:36;;;;;;;30.10;23.90;;;;;;;3.89;80.24;100636.28;5093620;28;20069;-49
2023/12/18 04:04:03;;;;;;;24.73;19.70;;;;;;;3.78;79.22;100644.81;5093419;28;20046;-48
2023/12/18 04:06:29;;;;;;;24.17;18.60;;;;;;;3.43;79.00;100631.72;5093292;28;20028;-48
2023/12/18 04:08:55;;;;;;;23.73;17.38;;;;;;;3.03;78.76;100627.47;5093289;28;20025;-48
2023/12/18 04:11:23;;;;;;;22.85;17.48;;;;;;;2.80;79.86;100637.63;5092974;28;20036;-49
2023/12/18 04:13:50;;;;;;;26.73;17.17;;;;;;;2.71;80.43;100629.63;5091775;28;20065;-48
2023/12/18 04:16:16;;;;;;;21.63;17.17;;;;;;;2.55;80.33;100627.22;5093120;28;20028;-49
2023/12/18 04:18:42;;;;;;;23.73;17.67;;;;;;;2.38;79.86;100628.34;5091779;28;20405;-49
2023/12/18 04:21:08;;;;;;;25.58;17.20;;;;;;;2.09;79.93;100625.84;5091728;28;20024;-48
2023/12/18 04:23:34;;;;;;;23.83;17.50;;;;;;;1.84;81.05;100634.34;5092789;28;20105;-48
2023/12/18 04:26:00;;;;;;;23.42;15.75;;;;;;;1.74;81.46;100628.91;5092974;28;20119;-48
2023/12/18 04:28:25;;;;;;;30.38;25.48;;;;;;;1.84;82.72;100625.75;5092927;28;20030;-49
2023/12/18 04:30:51;;;;;;;26.60;19.65;;;;;;;2.53;85.34;100624.72;5092862;28;20411;-49
2023/12/18 04:33:17;;;;;;;23.60;18.15;;;;;;;3.50;85.05;100622.56;5092652;28;20049;-48
2023/12/18 04:35:42;;;;;;;30.67;17.08;;;;;;;3.99;83.93;100619.13;5092642;28;20083;-49
2023/12/18 04:38:08;;;;;;;25.23;16.65;;;;;;;4.48;82.64;100618.13;5091397;28;20024;-49
2023/12/18 04:40:34;;;;;;;35.42;27.95;;;;;;;4.85;81.31;100618.00;5092612;28;20035;-49
2023/12/18 04:42:59;;;;;;;25.80;18.05;;;;;;;4.98;79.29;100615.28;5092608;28;20128;-49
2023/12/18 04:45:25;;;;;;;23.17;17.17;;;;;;;4.88;77.69;100614.34;5091252;28;20032;-48
2023/12/18 04:47:51;;;;;;;31.15;18.25;;;;;;;4.64;77.71;100617.00;5091221;28;20017;-48
2023/12/18 04:50:16;;;;;;;26.65;17.98;;;;;;;4.52;77.13;100619.56;5091139;28;20122;-49
2023/12/18 04:52:42;;;;;;;28.40;19.70;;;;;;;4.58;77.31;100613.09;5091049;28;20036;-49
2023/12/18 04:55:08;;;;;;;31.10;18.00;;;;;;;4.81;76.65;100613.97;5092393;28;20016;-48
2023/12/18 04:57:35;;;;;;;31.67;22.42;;;;;;;4.86;75.79;100604.03;5092394;28;20375;-49
2023/12/18 05:00:02;;;;;;;29.95;22.02;;;;;;;5.03;75.74;100609.72;5092554;28;20032;-48
2023/12/18 05:02:28;;;;;;;23.65;16.92;;;;;;;5.26;74.98;100611.41;5092296;28;20028;-48
2023/12/18 05:04:53;;;;;;;24.67;17.17;;;;;;;5.45;73.56;100613.41;5092302;28;20031;-48
2023/12/18 05:07:19;;;;;;;28.77;17.58;;;;;;;5.51;73.09;100610.31;5092195;28;20107;-49
2023/12/18 05:09:45;;;;;;;23.27;15.80;;;;;;;5.47;72.82;100605.47;5092202;28;20486;-49
2023/12/18 05:12:11;;;;;;;22.63;17.25;;;;;;;5.44;72.19;100608.34;5090469;28;20048;-49
2023/12/18 05:14:36;;;;;;;25.73;16.85;;;;;;;5.34;72.65;100603.00;5092110;28;20067;-48
2023/12/18 05:17:02;;;;;;;33.17;21.13;;;;;;;5.32;72.33;100602.31;5091030;28;20065;-48
2023/12/18 05:19:28;;;;;;;29.83;18.75;;;;;;;5.30;70.91;100599.81;5090765;28;20020;-49
2023/12/18 05:21:53;;;;;;;26.88;16.48;;;;;;;5.39;70.54;100604.31;5092028;28;20030;-49
2023/12/18 05:24:19;;;;;;;27.40;17.60;;;;;;;5.38;70.55;100600.03;5091993;28;20099;-48
2023/12/18 05:26:45;;;;;;;24.17;16.88;;;;;;;5.42;70.42;100605.03;5092001;28;20441;-49
2023/12/18 05:29:10;;;;;;;24.50;17.77;;;;;;;5.29;69.10;100598.16;5090631;28;20020;-48
2023/12/18 05:31:36;;;;;;;23.73;17.58;;;;;;;5.12;69.84;100601.22;5090600;28;20051;-48
2023/12/18 05:34:02;;;;;;;19.17;16.27;;;;;;;4.97;69.98;100606.66;5090483;28;20062;-49
2023/12/18 05:36:27;;;;;;;25.05;16.40;;;;;;;4.70;70.11;100603.53;5091272;28;20144;-49
2023/12/18 05:38:53;;;;;;;22.83;16.85;;;;;;;4.39;70.41;100604.03;5090547;28;20085;-49
2023/12/18 05:41:19;;;;;;;24.67;17.40;;;;;;;4.18;70.78;100605.59;5091791;28;20024;-49
2023/12/18 05:43:45;;;;;;;24.27;17.63;;;;;;;4.12;72.23;100599.06;5091806;28;20529;-48
2023/12/18 05:46:13;;;;;;;27.38;21.60;;;;;;;3.95;71.95;100599.50;5091730;28;20024;-49
2023/12/18 05:48:39;;;;;;;26.35;19.88;;;;;;;3.65;72.82;100602.50;5091782;28;20016;-49
2023/12/18 05:51:04;;;;;;;23.58;17.08;;;;;;;3.37;73.13;100600.06;5091677;28;20409;-49
2023/12/18 05:53:30;;;;;;;27.05;17.40;;;;;;;3.20;74.31;100603.81;5091893;28;20363;-49
2023/12/18 05:55:56;;;;;;;24.38;18.17;;;;;;;3.04;74.79;100595.44;5091617;28;20414;-48
2023/12/18 05:58:21;;;;;;;38.10;29.30;;;;;;;2.89;75.47;100599.06;5091894;28;20028;-49
2023/12/18 06:00:47;;;;;;;47.65;40.53;;;;;;;3.20;77.07;100598.63;5091653;28;20478;-49
2023/12/18 06:03:13;;;;;;;39.38;35.08;;;;;;;3.69;76.77;100586.59;5091602;28;20398;-49
2023/12/18 06:05:38;;;;;;;34.35;27.50;;;;;;;4.01;76.35;100586.06;5090241;28;20047;-48
2023/12/18 06:08:04;;;;;;;24.80;18.35;;;;;;;3.95;75.21;100591.69;5090231;28;20031;-48
2023/12/18 06:10:30;;;;;;;27.05;20.50;;;;;;;4.02;75.46;100592.91;5091597;28;20020;-48
2023/12/18 06:12:56;;;;;;;29.48;18.65;;;;;;;4.39;75.48;100590.22;5091257;28;20048;-48
2023/12/18 06:15:21;;;;;;;25.33;17.30;;;;;;;4.56;73.73;100589.78;5091445;28;20027;-49
2023/12/18 06:17:47;;;;;;;27.17;17.58;;;;;;;4.59;73.43;100588.75;5091420;28;20036;-49
2023/12/18 06:20:13;;;;;;;32.22;16.15;;;;;;;4.61;73.41;100597.25;5090054;28;20035;-49
2023/12/18 06:22:38;;;;;;;30.02;16.73;;;;;;;4.74;72.41;100594.56;5091427;28;20020;-49
2023/12/18 06:25:05;;;;;;;34.13;21.38;;;;;;;4.73;71.23;100585.94;5091371;28;20024;-49
2023/12/18 06:27:30;;;;;;;34.95;16.92;;;;;;;4.64;70.86;100580.59;5091391;28;20059;-49
2023/12/18 06:29:56;;;;;;;38.53;17.98;;;;;;;4.42;69.79;100581.38;5091365;28;20079;-48
2023/12/18 06:32:22;;;;;;;28.90;16.55;;;;;;;4.05;69.16;100587.50;5089928;28;20557;-48
2023/12/18 06:34:47;;;;;;;25.63;17.30;;;;;;;3.64;69.72;100586.06;5091263;28;20020;-48
2023/12/18 06:37:13;;;;;;;25.30;17.63;;;;;;;3.21;69.53;100604.66;5091256;28;20026;-48
2023/12/18 06:39:39;;;;;;;27.90;16.20;;;;;;;2.79;70.40;100593.66;5091251;28;20042;-48
2023/12/18 06:42:04;;;;;;;31.73;16.52;;;;;;;2.47;70.74;100593.22;5091217;28;20021;-48
2023/12/18 06:44:30;;;;;;;32.75;17.55;;;;;;;2.17;71.83;100594.28;5089942;28;20036;-48
2023/12/18 06:46:56;;;;;;;23.80;17.38;;;;;;;1.93;72.05;100588.91;5091222;28;20022;-48
2023/12/18 06:49:22;;;;;;;24.83;18.55;;;;;;;1.69;73.07;100583.50;5094066;28;20509;-49
2023/12/18 06:51:49;;;;;;;24.60;18.25;;;;;;;1.54;73.63;100595.66;5094792;28;20024;-48
2023/12/18 06:54:16;;;;;;;27.27;16.73;;;;;;;1.48;74.47;100596.88;5094884;28;20028;-48
2023/12/18 06:56:42;;;;;;;24.65;16.92;;;;;;;1.46;74.71;100600.47;5094692;28;20027;-49
2023/12/18 06:59:08;;;;;;;58.10;45.92;;;;;;;1.45;75.08;100603.97;5094887;28;20028;-48
2023/12/18 07:01:33;;;;;;;34.47;25.83;;;;;;;1.63;75.97;100597.69;5093498;28;20042;-48
2023/12/18 07:03:59;;;;;;;31.88;20.80;;;;;;;1.72;76.29;100599.69;5094537;28;20099;-48
2023/12/18 07:06:25;;;;;;;34.30;23.10;;;;;;;1.82;76.02;100599.13;5094501;28;20031;-48
2023/12/18 07:08:50;;;;;;;33.00;22.27;;;;;;;1.83;76.26;100590.41;5094448;28;20020;-48
2023/12/18 07:11:16;;;;;;;40.70;21.13;;;;;;;1.86;76.93;100595.41;5092643;28;20153;-48
2023/12/18 07:13:42;;;;;;;28.02;16.80;;;;;;;2.36;78.35;100586.97;5094289;28;20036;-49
2023/12/18 07:16:08;;;;;;;26.27;18.52;;;;;;;2.95;78.27;100594.28;5094239;28;20432;-49
2023/12/18 07:18:33;;;;;;;188.85;163.55;;;;;;;3.58;77.31;100594.28;5094358;28;20036;-49
2023/12/18 07:20:59;;;;;;;44.20;25.23;;;;;;;4.08;75.76;100589.84;5094284;28;20027;-49
2023/12/18 07:23:25;;;;;;;38.05;21.13;;;;;;;4.00;74.33;100582.63;5094209;28;20084;-48
2023/12/18 07:25:51;;;;;;;29.00;17.00;;;;;;;3.93;74.35;100588.38;5094193;28;20390;-49
2023/12/18 07:28:17;;;;;;;38.55;25.90;;;;;;;4.21;74.34;100592.41;5094114;28;20024;-48
2023/12/18 07:30:42;;;;;;;35.92;22.73;;;;;;;4.63;74.43;100591.94;5092728;28;20032;-49
2023/12/18 07:33:08;;;;;;;28.83;18.63;;;;;;;4.94;71.92;100598.25;5093931;28;20063;-49
2023/12/18 07:35:34;;;;;;;33.00;18.85;;;;;;;5.28;70.60;100595.69;5093757;28;20470;-49
2023/12/18 07:38:00;;;;;;;29.58;16.17;;;;;;;5.54;70.47;100593.66;5093924;28;20525;-48
2023/12/18 07:40:25;;;;;;;30.20;17.70;;;;;;;6.25;69.02;100596.66;5093833;28;20536;-49
2023/12/18 07:42:51;;;;;;;27.23;20.27;;;;;;;6.71;66.03;100602.50;5093779;28;20057;-49
2023/12/18 07:45:18;;;;;;;35.55;18.25;;;;;;;7.11;65.45;100602.56;5092394;28;20028;-49
2023/12/18 07:47:44;;;;;;;38.55;28.25;;;;;;;6.95;63.26;100605.66;5093748;28;20450;-49
2023/12/18 07:50:10;;;;;;;26.27;17.63;;;;;;;6.17;63.72;100607.72;5093624;28;20111;-49
2023/12/18 07:52:35;;;;;;;25.70;15.65;;;;;;;5.44;63.80;100609.16;5092244;28;20097;-49
2023/12/18 07:55:02;;;;;;;25.63;18.10;;;;;;;4.98;65.31;100623.91;5093543;28;20020;-49
2023/12/18 07:57:28;;;;;;;22.75;19.08;;;;;;;5.05;66.58;100615.66;5093559;28;20028;-49
2023/12/18 07:59:54;;;;;;;32.90;22.73;;;;;;;5.18;67.74;100616.38;5093340;28;20590;-49
2023/12/18 08:02:20;;;;;;;29.23;19.85;;;;;;;5.56;67.57;100621.22;5093422;28;20034;-48
2023/12/18 08:04:46;;;;;;;26.10;17.45;;;;;;;5.67;65.96;100616.94;5093348;28;20397;-49
2023/12/18 08:07:12;;;;;;;235.00;106.22;;;;;;;5.57;66.00;100619.44;5093354;28;20450;-49
2023/12/18 08:09:38;;;;;;;39.20;20.90;;;;;;;5.54;66.37;100617.91;5093299;28;20047;-49
2023/12/18 08:12:04;;;;;;;22.50;16.15;;;;;;;5.44;65.59;100621.34;5093046;28;20513;-48
2023/12/18 08:14:30;;;;;;;26.70;15.20;;;;;;;5.12;66.36;100619.44;5093245;28;20024;-48
2023/12/18 08:16:56;;;;;;;39.08;15.07;;;;;;;5.12;65.48;100622.88;5091877;28;20026;-49
2023/12/18 08:19:21;;;;;;;29.70;15.65;;;;;;;5.11;66.22;100621.22;5093168;28;20122;-49
2023/12/18 08:21:47;;;;;;;23.88;15.73;;;;;;;5.35;66.02;100613.31;5093072;28;20486;-49
2023/12/18 08:24:13;;;;;;;23.98;16.40;;;;;;;5.50;65.37;100619.09;5093050;28;20027;-49
2023/12/18 08:26:38;;;;;;;23.90;16.02;;;;;;;5.64;65.04;100619.81;5092982;28;20042;-49
2023/12/18 08:29:07;;;;;;;23.02;15.73;;;;;;;5.87;65.65;100617.97;5092926;28;20024;-49
2023/12/18 08:31:34;;;;;;;28.15;16.52;;;;;;;6.65;65.15;100616.88;5092816;28;20051;-49
2023/12/18 08:33:59;;;;;;;25.60;16.20;;;;;;;7.48;63.55;100614.25;5091451;28;20112;-49
2023/12/18 08:36:25;;;;;;;20.45;15.65;;;;;;;8.45;62.67;100600.50;5092771;28;20103;-49
2023/12/18 08:38:51;;;;;;;22.55;19.42;;;;;;;9.24;59.95;100591.50;5092799;28;20504;-49
2023/12/18 08:41:16;;;;;;;26.35;15.77;;;;;;;9.90;58.55;100593.91;5092620;28;20506;-49
2023/12/18 08:43:43;;;;;;;27.02;16.35;;;;;;;10.62;57.21;100599.13;5092671;28;20117;-49
2023/12/18 08:46:08;;;;;;;32.30;17.17;;;;;;;11.32;55.59;100592.94;5092595;28;20024;-49
2023/12/18 08:48:34;;;;;;;31.00;20.48;;;;;;;11.89;53.70;100600.22;5092500;28;20405;-49
2023/12/18 08:51:00;;;;;;;24.98;16.60;;;;;;;12.33;52.01;100589.41;5092569;28;20398;-49
2023/12/18 08:53:26;;;;;;;29.35;18.75;;;;;;;12.70;50.69;100591.53;5074226;28;20031;-49
2023/12/18 08:55:51;;;;;;;24.25;17.60;;;;;;;12.95;49.44;100576.47;5092434;28;20016;-49
2023/12/18 08:58:17;;;;;;;28.27;22.75;;;;;;;13.20;47.99;100576.44;5092381;28;20024;-47
2023/12/18 09:00:43;;;;;;;25.08;19.65;;;;;;;13.42;46.66;100574.03;5091051;28;20448;-47
2023/12/18 09:03:09;;;;;;;25.88;17.98;;;;;;;13.67;46.09;100575.56;5092220;28;20035;-47
2023/12/18 09:05:34;;;;;;;23.00;16.40;;;;;;;14.02;45.38;100575.16;5092292;28;20367;-47
2023/12/18 09:08:00;;;;;;;24.73;19.00;;;;;;;14.19;44.08;100572.22;5092223;28;20097;-47
2023/12/18 09:10:26;;;;;;;30.17;15.55;;;;;;;14.29;43.65;100571.19;5090123;28;20024;-47
2023/12/18 09:12:52;;;;;;;21.42;16.10;;;;;;;14.62;43.35;100565.63;5090676;28;20040;-47
2023/12/18 09:15:18;;;;;;;23.83;16.67;;;;;;;14.92;42.45;100561.19;5090881;28;20031;-47
2023/12/18 09:17:44;;;;;;;72.68;20.27;;;;;;;15.20;40.98;100569.28;5092124;28;20032;-47
2023/12/18 09:20:10;;;;;;;29.23;16.55;;;;;;;15.35;41.02;100558.66;5092055;28;20096;-47
2023/12/18 09:22:37;;;;;;;28.60;17.30;;;;;;;15.40;40.41;100566.88;5073995;28;20035;-47
2023/12/18 09:25:03;;;;;;;27.60;18.48;;;;;;;15.51;40.60;100571.72;5092024;28;20035;-47
2023/12/18 09:27:29;;;;;;;25.73;16.55;;;;;;;15.81;39.79;100573.47;5090736;28;20102;-47
2023/12/18 09:29:55;;;;;;;30.52;17.10;;;;;;;15.97;39.54;100583.81;5091021;28;20177;-47
2023/12/18 09:32:21;;;;;;;27.77;16.92;;;;;;;15.93;39.31;100578.06;5091835;28;20492;-47
2023/12/18 09:34:47;;;;;;;24.27;16.67;;;;;;;15.87;39.21;100570.06;5090663;28;20039;-47
2023/12/18 09:37:13;;;;;;;23.65;17.75;;;;;;;15.79;39.08;100573.66;5090551;28;20394;-47
2023/12/18 09:39:42;;;;;;;28.02;16.70;;;;;;;16.16;39.93;100571.78;5090521;28;20112;-47
2023/12/18 09:42:11;;;;;;;26.65;19.30;;;;;;;16.60;38.89;100569.88;5090457;28;20059;-47
2023/12/18 09:44:38;;;;;;;32.35;20.17;;;;;;;16.57;37.74;100568.41;5092128;28;20039;-47
2023/12/18 09:47:04;;;;;;;32.70;18.33;;;;;;;16.42;37.95;100559.75;5091818;28;20522;-47
2023/12/18 09:49:31;;;;;;;27.60;19.45;;;;;;;16.50;37.75;100560.44;5091739;28;20024;-47
2023/12/18 09:52:04;;;;;;;31.35;22.23;;;;;;;16.67;37.69;100570.75;5091636;28;20020;-47
2023/12/18 09:54:31;;;;;;;26.00;21.08;;;;;;;16.89;36.81;100556.41;5091783;28;20028;-47
2023/12/18 09:57:01;;;;;;;33.00;20.85;;;;;;;16.76;36.99;100565.09;5091724;28;20490;-47
2023/12/18 09:59:27;;;;;;;31.80;21.80;;;;;;;17.09;36.90;100559.19;5091680;28;20024;-47
2023/12/18 10:01:54;;;;;;;28.88;20.63;;;;;;;17.13;36.46;100559.59;5090334;28;20408;-47
2023/12/18 10:04:20;;;;;;;29.02;21.95;;;;;;;17.18;36.52;100551.88;5091569;28;20043;-47
2023/12/18 10:06:46;;;;;;;39.13;22.65;;;;;;;17.24;36.20;100553.72;5091598;28;20024;-47
2023/12/18 10:09:15;;;;;;;30.20;22.48;;;;;;;17.29;36.64;100546.00;5091594;28;20070;-47
2023/12/18 10:11:45;;;;;;;35.60;21.13;;;;;;;17.37;35.99;100552.97;5095191;28;20082;-48
2023/12/18 10:14:14;;;;;;;32.53;20.48;;;;;;;17.50;35.97;100549.53;5091405;28;20036;-47
2023/12/18 10:16:41;;;;;;;24.48;19.23;;;;;;;17.60;35.69;100549.16;5090216;28;20103;-47
2023/12/18 10:19:08;;;;;;;38.92;26.92;;;;;;;17.68;36.38;100546.31;5091464;28;20047;-48
2023/12/18 10:21:33;;;;;;;37.75;23.13;;;;;;;17.27;38.17;100545.38;5091676;28;20095;-47
2023/12/18 10:23:59;;;;;;;35.25;22.27;;;;;;;16.26;37.64;100547.59;5095324;28;20024;-48
2023/12/18 10:26:25;;;;;;;27.77;21.10;;;;;;;16.03;39.49;100545.97;5095190;28;20020;-47
2023/12/18 10:28:54;;;;;;;22.58;20.02;;;;;;;16.29;39.46;100547.22;5095231;28;20077;-47
2023/12/18 10:31:20;;;;;;;27.67;21.10;;;;;;;16.08;39.44;100540.13;5093885;28;20028;-47
2023/12/18 10:33:45;;;;;;;28.63;25.48;;;;;;;15.71;38.56;100545.44;5095104;28;20028;-47
2023/12/18 10:36:14;;;;;;;46.10;41.28;;;;;;;15.69;39.82;100546.63;5093739;28;20371;-47
2023/12/18 10:38:41;;;;;;;52.28;42.13;;;;;;;16.11;39.02;100529.94;5095039;28;20103;-47
2023/12/18 10:41:09;;;;;;;138.55;120.97;;;;;;;16.26;38.85;100527.22;5093789;28;20020;-47
2023/12/18 10:43:36;;;;;;;39.15;28.50;;;;;;;16.11;38.92;100529.94;5094931;28;20059;-47
2023/12/18 10:46:05;;;;;;;37.92;32.38;;;;;;;16.30;39.08;100527.69;5094918;28;20073;-47
2023/12/18 10:48:32;;;;;;;40.92;33.75;;;;;;;16.41;38.85;100524.47;5094828;28;20024;-47
2023/12/18 10:51:02;;;;;;;35.85;25.15;;;;;;;16.57;38.98;100526.00;5093597;28;20490;-47
2023/12/18 10:53:29;;;;;;;31.02;20.73;;;;;;;17.12;37.99;100521.66;5094642;28;20024;-47
2023/12/18 10:55:58;;;;;;;23.88;18.25;;;;;;;17.75;37.33;100517.94;5094786;28;20562;-47
2023/12/18 10:58:24;;;;;;;22.20;16.63;;;;;;;18.30;36.15;100507.16;5093405;28;20040;-47
2023/12/18 11:00:51;;;;;;;21.27;17.90;;;;;;;18.51;35.83;100508.75;5094648;28;20445;-47
2023/12/18 11:03:18;;;;;;;20.67;16.30;;;;;;;18.67;35.81;100505.66;5093569;28;20036;-47
2023/12/18 11:05:46;;;;;;;19.77;17.67;;;;;;;18.62;39.07;100510.78;5094553;28;20031;-47
2023/12/18 11:08:12;;;;;;;26.13;17.92;;;;;;;18.35;38.94;100496.69;5094510;28;20020;-47